Thunder radar more information blitzortung!


Radar de pluja more information rain snow radar


Visita la nostra xarxa de llocs de meteo:

Template documentation
and downloads

And another site



No particular awareness of the weather is required.    There are no Weather-warnings

Pagina Historial Weather Underground text

Diari Resum Setembre 2, 2017 Unitats:  Imperial    Mètric   Tant
« Previous Dia
SegĂźent Dia »
Diari Setmana Mensual Anual Personalitzada
  Maxima: Minima: Media:
Temperatura: 85.6 °F 57.9 °F 72.7 °F
Punt de rosada: 58.5 °F 42.4 °F 47.7 °F
Humitat: 68 % 23 % 44 %
Wind Speed: 12.7 mph 0 mph 4.5 mph
RĂ fegues de vent: 12.7 mph - -
Vent:- - SSE
Pression baro: 30.1 in 30 in -
Precipitacions: 0 in    
Historical Graphs
 
 
Dades de taula per Setembre 2, 2017
Temps Temperatura Punt de rosada Pression baro Vent Wind Speed RĂ fegues de vent Humitat Rainfall Rate (Hourly)
00:00 61.9 °F 46.9 °F 30.1 in WSW 2 mph 3 mph 58 % 0 in
00:02 70.3 °F 58.5 °F 30 in ESE 2.4 mph 3.3 mph 66 % 0 in
00:10 61.7 °F 46.8 °F 30.1 in Calm   1 mph 58 % 0 in
00:20 61.5 °F 46.6 °F 30.1 in WSW 1 mph 2 mph 58 % 0 in
00:30 61.2 °F 46.2 °F 30.1 in Calm     58 % 0 in
00:40 61 °F 46.6 °F 30.1 in SW 1 mph 1 mph 59 % 0 in
00:50 60.8 °F 46.4 °F 30.1 in WSW 1 mph 2 mph 59 % 0 in
01:00 60.8 °F 46.4 °F 30.1 in WSW 2 mph 2 mph 59 % 0 in
01:10 60.4 °F 46 °F 30.1 in Calm   2 mph 59 % 0 in
01:20 60.4 °F 46 °F 30.1 in Calm     59 % 0 in
01:30 60.1 °F 45.7 °F 30.1 in SE 1 mph 2 mph 59 % 0 in
01:40 59.7 °F 45.3 °F 30.1 in SW 1 mph 2 mph 59 % 0 in
01:50 59.7 °F 45.9 °F 30.1 in Calm   3 mph 60 % 0 in
02:00 59.4 °F 45.5 °F 30.1 in WSW 1 mph 2 mph 60 % 0 in
02:10 59.2 °F 45.3 °F 30.1 in WSW 1 mph 2 mph 60 % 0 in
02:20 59.2 °F 45.3 °F 30.1 in Calm   2 mph 60 % 0 in
02:30 59 °F 45.7 °F 30.1 in Calm   3 mph 61 % 0 in
02:40 58.8 °F 45.3 °F 30.1 in WSW 2 mph 2 mph 61 % 0 in
02:50 58.8 °F 45.3 °F 30.1 in WSW 2 mph 3 mph 61 % 0 in
03:00 58.5 °F 45.1 °F 30 in West 1 mph 1 mph 61 % 0 in
03:10 58.1 °F 44.8 °F 30 in SW 1 mph 2 mph 61 % 0 in
03:20 57.9 °F 44.4 °F 30 in SW 1 mph 2 mph 61 % 0 in
03:30 57.9 °F 45 °F 30.1 in Calm   1 mph 62 % 0 in
03:40 57.9 °F 45 °F 30.1 in West 1 mph 1 mph 62 % 0 in
03:50 58.1 °F 45.7 °F 30.1 in West 1 mph 2 mph 63 % 0 in
04:00 58.6 °F 45.7 °F 30.1 in WSW 1 mph 2 mph 62 % 0 in
04:10 59.2 °F 46.2 °F 30.1 in Calm   1 mph 62 % 0 in
04:20 60.8 °F 47.7 °F 30.1 in SW 1 mph 2 mph 62 % 0 in
04:30 60.4 °F 46.9 °F 30.1 in WSW 1 mph 3 mph 61 % 0 in
04:40 61.7 °F 48 °F 30.1 in WSW 1 mph 1 mph 61 % 0 in
04:50 62.4 °F 48.4 °F 30.1 in NW 1 mph 3 mph 60 % 0 in
05:00 62.8 °F 47.8 °F 30.1 in NNE 3 mph 4 mph 58 % 0 in
05:10 63 °F 47.8 °F 30.1 in ENE 1 mph 3 mph 58 % 0 in
05:20 63.5 °F 48.6 °F 30.1 in ENE 2 mph 2 mph 58 % 0 in
05:30 64.2 °F 48.7 °F 30.1 in ENE 1 mph 3 mph 57 % 0 in
05:40 64.6 °F 48.6 °F 30.1 in ENE 3 mph 3 mph 56 % 0 in
05:50 65.1 °F 48.9 °F 30.1 in Calm   4 mph 56 % 0 in
06:00 67.3 °F 50.2 °F 30.1 in SE 1 mph 1 mph 54 % 0 in
06:10 66 °F 48.9 °F 30.1 in East 3 mph 4 mph 54 % 0 in
06:20 66.7 °F 49.1 °F 30.1 in NE 1 mph 3 mph 53 % 0 in
11:23 72 °F 51.8 °F 30.1 in ENE 2.3 mph 2.6 mph 49 % 0 in
11:24 72 °F 51.8 °F 30.1 in ENE 2.3 mph 2.6 mph 49 % 0 in
11:25 71.8 °F 51.1 °F 30.1 in ENE 3.5 mph 3.5 mph 48 % 0 in
11:30 72 °F 51.3 °F 30.1 in ESE 3.5 mph 3.5 mph 48 % 0 in
11:35 71.6 °F 50.9 °F 30.1 in ENE 5.8 mph 5.8 mph 48 % 0 in
11:40 70.9 °F 50.2 °F 30.1 in East 4.6 mph 4.6 mph 48 % 0 in
11:45 72.1 °F 51.4 °F 30.1 in SSW 2.3 mph 2.3 mph 48 % 0 in
11:50 72.5 °F 50.5 °F 30.1 in ESE 4.6 mph 4.6 mph 46 % 0 in
11:55 72.9 °F 50.9 °F 30.1 in East 3.5 mph 3.5 mph 46 % 0 in
12:00 73.8 °F 51.6 °F 30.1 in NW 3.5 mph 3.5 mph 46 % 0 in
12:05 74.8 °F 52.2 °F 30.1 in South 3.5 mph 3.5 mph 45 % 0 in
12:10 73.9 °F 51.3 °F 30.1 in SW 3.5 mph 3.5 mph 45 % 0 in
12:15 74.7 °F 52 °F 30.1 in NE 3.5 mph 3.5 mph 45 % 0 in
12:20 75.7 °F 51.6 °F 30.1 in East 3.6 mph 3.6 mph 43 % 0 in
12:25 73.6 °F 49.6 °F 30.1 in NE 4.6 mph 4.6 mph 43 % 0 in
12:30 73.9 °F 50 °F 30.1 in ENE 5.8 mph 5.8 mph 43 % 0 in
12:35 74.5 °F 50.5 °F 30.1 in South 2.3 mph 2.3 mph 43 % 0 in
12:40 76.1 °F 51.3 °F 30.1 in SSW 7.8 mph 7.8 mph 42 % 0 in
12:45 76.6 °F 51.8 °F 30.1 in WSW 5.8 mph 5.8 mph 42 % 0 in
12:50 77.9 °F 52.3 °F 30.1 in NW 2.9 mph 2.9 mph 41 % 0 in
12:55 78.1 °F 52.5 °F 30.1 in NNW 3.5 mph 3.5 mph 41 % 0 in
13:00 77.2 °F 51.1 °F 30.1 in NE 4.6 mph 4.6 mph 40 % 0 in
13:05 77.9 °F 51.6 °F 30.1 in NNW 3.8 mph 3.8 mph 40 % 0 in
13:10 78.4 °F 50 °F 30.1 in South 2.3 mph 2.3 mph 37 % 0 in
13:15 79 °F 51.3 °F 30.1 in NNW 4 mph 4 mph 38 % 0 in
13:20 79.3 °F 50.2 °F 30.1 in West 5.8 mph 5.8 mph 36 % 0 in
13:25 79.5 °F 49.5 °F 30.1 in ESE 4.9 mph 4.9 mph 35 % 0 in
13:30 79.5 °F 47.1 °F 30.1 in WNW 3.5 mph 3.5 mph 32 % 0 in
13:35 79.7 °F 46.4 °F 30.1 in SW 5.9 mph 5.9 mph 31 % 0 in
13:40 79.2 °F 45.9 °F 30.1 in West 8.1 mph 8.1 mph 31 % 0 in
13:45 79.9 °F 47.5 °F 30.1 in SW 4.6 mph 4.6 mph 32 % 0 in
13:50 79.9 °F 46.6 °F 30.1 in WSW 6.9 mph 6.9 mph 31 % 0 in
13:55 80.6 °F 46.2 °F 30.1 in West 3.5 mph 3.8 mph 30 % 0 in
14:00 80.2 °F 45.1 °F 30.1 in NW 8.1 mph 8.1 mph 29 % 0 in
14:05 80.6 °F 45.3 °F 30.1 in South 3.5 mph 3.5 mph 29 % 0 in
14:10 81.1 °F 45.9 °F 30.1 in West 6.9 mph 6.9 mph 29 % 0 in
14:15 81.1 °F 45.9 °F 30.1 in WSW 8.1 mph 8.1 mph 29 % 0 in
14:20 81.5 °F 45.1 °F 30.1 in West 2.3 mph 2.4 mph 28 % 0 in
14:25 81.9 °F 46.6 °F 30.1 in WSW 6.4 mph 6.4 mph 29 % 0 in
14:30 81.5 °F 45.1 °F 30.1 in SW 5.8 mph 5.8 mph 28 % 0 in
14:35 82 °F 45.7 °F 30.1 in WSW 8.1 mph 8.1 mph 28 % 0 in
14:40 82.4 °F 46 °F 30 in WSW 6 mph 6 mph 28 % 0 in
14:45 82.2 °F 45.9 °F 30 in WSW 9.2 mph 9.2 mph 28 % 0 in
14:50 82 °F 44.8 °F 30 in West 9 mph 9 mph 27 % 0 in
14:55 82.2 °F 45 °F 30 in SSW 8.1 mph 8.1 mph 27 % 0 in
15:00 81.9 °F 44.6 °F 30 in West 6.2 mph 6.2 mph 27 % 0 in
15:05 82.4 °F 45.1 °F 30 in WSW 3.8 mph 3.8 mph 27 % 0 in
15:10 82.4 °F 45.1 °F 30 in West 8.1 mph 8.1 mph 27 % 0 in
15:15 82.2 °F 45 °F 30 in WSW 4.6 mph 4.6 mph 27 % 0 in
15:20 82 °F 44.8 °F 30 in SW 4.6 mph 4.6 mph 27 % 0 in
15:25 82.2 °F 45 °F 30 in WSW 8.1 mph 8.1 mph 27 % 0 in
15:30 81.9 °F 43.5 °F 30 in SW 8.1 mph 8.1 mph 26 % 0 in
15:35 82 °F 43.9 °F 30 in SW 5.8 mph 5.8 mph 26 % 0 in
15:40 82.9 °F 44.4 °F 30 in SW 5.8 mph 5.8 mph 26 % 0 in
15:45 82.4 °F 43 °F 30 in West 8.1 mph 8.1 mph 25 % 0 in
15:50 82.6 °F 43.2 °F 30 in SW 11.5 mph 11.5 mph 25 % 0 in
15:55 82.9 °F 43.5 °F 30 in SSW 6.9 mph 6.9 mph 25 % 0 in
16:00 83.5 °F 43.9 °F 30 in SW 9.2 mph 9.2 mph 25 % 0 in
16:05 83.3 °F 43.9 °F 30 in WSW 9.4 mph 9.4 mph 25 % 0 in
16:10 83.5 °F 43.9 °F 30 in SW 4.6 mph 4.6 mph 25 % 0 in
16:15 83.3 °F 43.9 °F 30 in NNW 3.6 mph 3.6 mph 25 % 0 in
16:20 83.8 °F 43.2 °F 30 in WNW 5.8 mph 5.8 mph 24 % 0 in
16:25 84.2 °F 43.5 °F 30 in West 3.5 mph 3.5 mph 24 % 0 in
16:30 83.7 °F 43 °F 30 in SSE 9.2 mph 9.2 mph 24 % 0 in
16:35 83.8 °F 43.2 °F 30 in WNW 3.5 mph 3.5 mph 24 % 0 in
16:40 84.2 °F 43.5 °F 30 in SW 6.9 mph 6.9 mph 24 % 0 in
16:45 85.3 °F 44.4 °F 30 in SSE 3.5 mph 3.5 mph 24 % 0 in
16:50 85.5 °F 44.4 °F 30 in SSW 5.8 mph 5.8 mph 24 % 0 in
16:55 85.3 °F 44.4 °F 30 in SW 8.1 mph 8.1 mph 24 % 0 in
17:00 85.1 °F 44.2 °F 30 in West 8.1 mph 8.1 mph 24 % 0 in
17:05 85.1 °F 44.2 °F 30 in SSW 8.1 mph 8.1 mph 24 % 0 in
17:10 84.6 °F 42.6 °F 30 in SW 9.8 mph 9.8 mph 23 % 0 in
17:15 84 °F 43.3 °F 30 in West 9.2 mph 9.2 mph 24 % 0 in
17:20 84.9 °F 43 °F 30 in SSW 4.6 mph 4.6 mph 23 % 0 in
17:25 85.6 °F 44.8 °F 30 in South 5.9 mph 5.9 mph 24 % 0 in
17:30 84.9 °F 43 °F 30 in West 8.1 mph 8.1 mph 23 % 0 in
17:35 84.9 °F 43 °F 30 in WSW 4.6 mph 4.6 mph 23 % 0 in
17:40 84.9 °F 43 °F 30 in SSW 5.8 mph 5.8 mph 23 % 0 in
17:45 85.1 °F 43.2 °F 30 in SW 8.1 mph 8.1 mph 23 % 0 in
17:50 84.9 °F 43 °F 30 in WSW 5.8 mph 5.8 mph 23 % 0 in
17:55 84.7 °F 42.8 °F 30 in SSW 8.1 mph 8.1 mph 23 % 0 in
18:00 84.4 °F 42.4 °F 30 in West 8.1 mph 8.1 mph 23 % 0 in
18:05 84.7 °F 42.8 °F 30 in WNW 4.6 mph 4.6 mph 23 % 0 in
18:10 84.6 °F 42.6 °F 30 in SW 3.5 mph 3.5 mph 23 % 0 in
18:15 84.2 °F 42.4 °F 30 in SW 8.1 mph 8.1 mph 23 % 0 in
18:20 84 °F 43.3 °F 30 in West 6.9 mph 6.9 mph 24 % 0 in
18:25 84 °F 43.3 °F 30 in WSW 5.8 mph 5.8 mph 24 % 0 in
18:30 83.7 °F 43 °F 30 in SSW 8.1 mph 8.1 mph 24 % 0 in
18:35 82.6 °F 43.2 °F 30 in SW 9.2 mph 9.2 mph 25 % 0 in
18:40 81.9 °F 43.5 °F 30 in WSW 6.4 mph 6.4 mph 26 % 0 in
18:45 81.5 °F 44.2 °F 30 in SW 8.1 mph 8.1 mph 27 % 0 in
18:50 81.1 °F 44.1 °F 30 in SSW 3.5 mph 3.5 mph 27 % 0 in
18:55 81 °F 43.9 °F 30 in SW 5.8 mph 5.8 mph 27 % 0 in
19:00 79.5 °F 43.5 °F 30 in SSW 3.5 mph 4 mph 28 % 0 in
19:05 79 °F 44.1 °F 30 in SSW 8.1 mph 8.1 mph 29 % 0 in
19:10 78.4 °F 43.5 °F 30 in South 11.5 mph 11.5 mph 29 % 0 in
19:15 78.1 °F 43.2 °F 30 in South 3.5 mph 3.5 mph 29 % 0 in
19:16 78.1 °F 43.2 °F 30 in SW 3.6 mph 3.6 mph 29 % 0 in
19:21 78.1 °F 43.2 °F 30 in East 2.9 mph 2.9 mph 29 % 0 in
19:25 67.5 °F 52.2 °F 30.1 in NNE 3 mph 4 mph 58 % 0 in
19:26 77.5 °F 43.5 °F 30 in ESE 5.8 mph 5.8 mph 30 % 0 in
19:31 77.2 °F 43.3 °F 30 in East 5.9 mph 5.9 mph 30 % 0 in
19:35 67.6 °F 52.9 °F 30.1 in NNE 3 mph 4 mph 59 % 0 in
19:36 76.6 °F 44.6 °F 30 in SE 3.5 mph 3.5 mph 32 % 0 in
19:41 76.1 °F 44.1 °F 30 in ESE 6.9 mph 6.9 mph 32 % 0 in
19:45 67.5 °F 52.5 °F 30.1 in NNE 3 mph 4 mph 59 % 0 in
19:46 75.6 °F 44.4 °F 30 in ENE 10.4 mph 10.4 mph 33 % 0 in
19:51 75 °F 46.2 °F 30 in ENE 9.7 mph 9.7 mph 36 % 0 in
19:55 67.3 °F 52.5 °F 30.1 in NNE 3 mph 4 mph 59 % 0 in
19:56 74.8 °F 46.8 °F 30 in ESE 9.2 mph 9.2 mph 37 % 0 in
20:01 74.7 °F 47.5 °F 30 in ENE 9.2 mph 9.2 mph 38 % 0 in
20:05 67.3 °F 52.5 °F 30.1 in NNE 2 mph 5 mph 59 % 0 in
20:06 74.3 °F 46.9 °F 30 in East 5.8 mph 5.8 mph 38 % 0 in
20:11 73.9 °F 47.5 °F 30 in NNE 12.7 mph 12.7 mph 39 % 0 in
20:15 67.3 °F 52.5 °F 30.1 in NNE 2 mph 4 mph 59 % 0 in
20:16 73.8 °F 47.8 °F 30 in NE 4.9 mph 4.9 mph 40 % 0 in
20:21 73.4 °F 47.7 °F 30 in East 6.9 mph 6.9 mph 40 % 0 in
20:25 66.9 °F 52.5 °F 30.1 in NNE 1 mph 3 mph 60 % 0 in
20:26 73.2 °F 48 °F 30 in ENE 6.9 mph 6.9 mph 41 % 0 in
20:31 73 °F 47.8 °F 30 in ESE 5.8 mph 5.8 mph 41 % 0 in
20:35 66.6 °F 52.2 °F 30.1 in NNE 1 mph 3 mph 60 % 0 in
20:36 72.9 °F 48.4 °F 30 in ENE 10.4 mph 10.4 mph 42 % 0 in
20:41 72.7 °F 48.9 °F 30 in ESE 5.9 mph 5.9 mph 43 % 0 in
20:45 66.4 °F 52.5 °F 30.1 in Calm     61 % 0 in
20:46 72.5 °F 48.7 °F 30 in NE 6.9 mph 6.9 mph 43 % 0 in
20:51 72.1 °F 48.9 °F 30 in ENE 6.9 mph 6.9 mph 44 % 0 in
20:55 66.4 °F 52.5 °F 30.1 in NNE 2 mph 2 mph 61 % 0 in
20:56 71.8 °F 49.3 °F 30.1 in ENE 4.6 mph 4.6 mph 45 % 0 in
21:01 71.6 °F 49.1 °F 30.1 in NE 4.6 mph 4.6 mph 45 % 0 in
21:05 66.4 °F 52.5 °F 30.1 in NNE 3 mph 3 mph 61 % 0 in
21:06 71.2 °F 50 °F 30.1 in NNE 5.8 mph 5.8 mph 47 % 0 in
21:11 71.1 °F 49.8 °F 30.1 in NE 3.6 mph 3.6 mph 47 % 0 in
21:15 66.2 °F 52.3 °F 30.1 in NNE 2 mph 3 mph 61 % 0 in
21:16 70.9 °F 49.6 °F 30.1 in East 5.8 mph 5.8 mph 47 % 0 in
21:21 70.5 °F 49.8 °F 30.1 in NNE 5.8 mph 5.8 mph 48 % 0 in
21:25 65.7 °F 52.7 °F 30.1 in NNE 1 mph 2 mph 63 % 0 in
21:26 70.3 °F 49.6 °F 30.1 in ENE 8.1 mph 8.1 mph 48 % 0 in
21:31 70.2 °F 49.5 °F 30.1 in NNE 5.8 mph 5.8 mph 48 % 0 in
21:35 65.3 °F 52.3 °F 30.1 in Calm   2 mph 63 % 0 in
21:36 69.8 °F 49.3 °F 30.1 in NNE 5.8 mph 5.8 mph 48 % 0 in
21:41 69.6 °F 49.6 °F 30.1 in NNE 7.4 mph 7.4 mph 49 % 0 in
21:45 65.1 °F 52.2 °F 30.1 in NNE 2 mph 3 mph 63 % 0 in
21:46 69.6 °F 50.2 °F 30.1 in ENE 5.8 mph 5.8 mph 50 % 0 in
21:51 69.4 °F 50 °F 30.1 in NE 9 mph 9 mph 50 % 0 in
21:55 64.9 °F 52 °F 30.1 in NNE 1 mph 2 mph 63 % 0 in
21:56 69.3 °F 49.8 °F 30.1 in ENE 6.9 mph 6.9 mph 50 % 0 in
22:01 69.1 °F 49.6 °F 30.1 in NNE 5.8 mph 5.8 mph 50 % 0 in
22:05 64.8 °F 52 °F 30.1 in NE 1 mph 3 mph 63 % 0 in
22:06 69.1 °F 50.2 °F 30.1 in NE 5.8 mph 5.8 mph 51 % 0 in
22:11 68.9 °F 50 °F 30.1 in ENE 5.8 mph 5.8 mph 51 % 0 in
22:15 64.4 °F 51.4 °F 30.1 in NNE 1 mph 4 mph 63 % 0 in
22:16 68.9 °F 50 °F 30.1 in NE 4.6 mph 4.6 mph 51 % 0 in
22:21 68.7 °F 49.8 °F 30.1 in NNE 5.8 mph 5.8 mph 51 % 0 in
22:25 64 °F 51.3 °F 30.1 in North 1 mph 4 mph 63 % 0 in
22:26 68.7 °F 50.4 °F 30.1 in NNE 5.8 mph 5.8 mph 52 % 0 in
22:31 68.5 °F 50.2 °F 30.1 in NNE 5.8 mph 5.8 mph 52 % 0 in
22:35 63.7 °F 50.7 °F 30.1 in NW 1 mph 2 mph 63 % 0 in
22:36 68.5 °F 50.2 °F 30.1 in NNW 4.6 mph 4.6 mph 52 % 0 in
22:41 68.4 °F 50 °F 30.1 in ENE 4.6 mph 4.6 mph 52 % 0 in
22:45 63.5 °F 51.1 °F 30.1 in Calm   1 mph 64 % 0 in
22:46 68.4 °F 50.5 °F 30.1 in NNE 4.6 mph 4.6 mph 53 % 0 in
22:51 68.4 °F 50.5 °F 30.1 in NNE 3.5 mph 3.6 mph 53 % 0 in
22:55 63.1 °F 50.7 °F 30.1 in Calm   1 mph 64 % 0 in
22:56 68.2 °F 50.4 °F 30.1 in North 4.6 mph 4.6 mph 53 % 0 in
23:01 68.2 °F 50.9 °F 30.1 in NNE 3.5 mph 3.5 mph 54 % 0 in
23:05 63 °F 50.5 °F 30.1 in West 1 mph 1 mph 64 % 0 in
23:06 68.2 °F 50.9 °F 30.1 in NNE 4.6 mph 4.6 mph 54 % 0 in
23:11 68.2 °F 50.9 °F 30.1 in NNW 5.8 mph 5.8 mph 54 % 0 in
23:15 62.8 °F 50.7 °F 30.1 in Calm   1 mph 65 % 0 in
23:16 68 °F 50.7 °F 30.1 in NNE 5.8 mph 5.8 mph 54 % 0 in
23:21 68 °F 51.3 °F 30.1 in NNE 5.8 mph 5.8 mph 55 % 0 in
23:25 62.4 °F 50.9 °F 30.1 in NW 1 mph 2 mph 66 % 0 in
23:26 68 °F 51.3 °F 30.1 in NNE 6.9 mph 6.9 mph 55 % 0 in
23:31 68 °F 51.3 °F 30.1 in NNE 5.8 mph 5.8 mph 55 % 0 in
23:36 67.8 °F 51.4 °F 30.1 in NNE 5.8 mph 5.8 mph 56 % 0 in
23:41 67.8 °F 51.4 °F 30.1 in NE 4.6 mph 4.6 mph 56 % 0 in
23:45 61.7 °F 51.1 °F 30.1 in WSW 1 mph 2 mph 68 % 0 in
23:46 67.8 °F 51.4 °F 30.1 in NNE 4.6 mph 4.6 mph 56 % 0 in
23:51 67.8 °F 51.4 °F 30.1 in NNE 4.6 mph 4.6 mph 56 % 0 in
23:55 61.3 °F 50.7 °F 30 in WSW 1 mph 2 mph 68 % 0 in
23:56 67.6 °F 51.4 °F 30.1 in NE 4.6 mph 4.6 mph 56 % 0 in
Meteo Sesrovires
Elogis d' Weather Underground - 3.75 mb

Guio original per  Jim McMurry - jmcmurry@mwt.net Adaptat per a la plantilla per  Wim van der Kuil - Leuven-Template.eu

Trobareu la nostra informacio del temps tambe a:

Weather Underground

AWEKAS